sensor_id;sensor_type;location;lat;lon;timestamp;temperature;humidity
28087;DHT22;15392;48.912;8.380;2022-10-04T00:01:49;16.50;56.00
28087;DHT22;15392;48.912;8.380;2022-10-04T00:09:50;16.40;56.30
28087;DHT22;15392;48.912;8.380;2022-10-04T00:15:02;16.40;56.30
28087;DHT22;15392;48.912;8.380;2022-10-04T00:17:38;16.30;56.40
28087;DHT22;15392;48.912;8.380;2022-10-04T00:23:24;16.20;56.50
28087;DHT22;15392;48.912;8.380;2022-10-04T00:25:59;16.20;56.40
28087;DHT22;15392;48.912;8.380;2022-10-04T00:28:29;16.20;56.30
28087;DHT22;15392;48.912;8.380;2022-10-04T00:31:23;16.20;56.30
28087;DHT22;15392;48.912;8.380;2022-10-04T00:44:53;16.00;56.10
28087;DHT22;15392;48.912;8.380;2022-10-04T00:47:30;15.90;56.20
28087;DHT22;15392;48.912;8.380;2022-10-04T00:50:26;15.90;56.40
28087;DHT22;15392;48.912;8.380;2022-10-04T00:52:58;15.80;56.40
28087;DHT22;15392;48.912;8.380;2022-10-04T00:55:37;15.80;56.40
28087;DHT22;15392;48.912;8.380;2022-10-04T00:58:17;15.80;56.60
28087;DHT22;15392;48.912;8.380;2022-10-04T01:00:47;15.70;57.20
28087;DHT22;15392;48.912;8.380;2022-10-04T01:03:41;15.70;56.60
28087;DHT22;15392;48.912;8.380;2022-10-04T01:06:09;15.70;56.80
28087;DHT22;15392;48.912;8.380;2022-10-04T01:08:49;15.60;56.80
28087;DHT22;15392;48.912;8.380;2022-10-04T01:11:21;15.60;56.70
28087;DHT22;15392;48.912;8.380;2022-10-04T01:13:58;15.60;56.70
28087;DHT22;15392;48.912;8.380;2022-10-04T01:16:32;15.60;56.70
28087;DHT22;15392;48.912;8.380;2022-10-04T01:22:02;15.50;57.00
28087;DHT22;15392;48.912;8.380;2022-10-04T01:24:42;15.50;57.00
28087;DHT22;15392;48.912;8.380;2022-10-04T01:29:55;15.50;57.00
28087;DHT22;15392;48.912;8.380;2022-10-04T01:32:21;15.50;56.90
28087;DHT22;15392;48.912;8.380;2022-10-04T01:34:47;15.40;56.80
28087;DHT22;15392;48.912;8.380;2022-10-04T01:37:13;15.40;56.90
28087;DHT22;15392;48.912;8.380;2022-10-04T01:39:39;15.40;56.90
28087;DHT22;15392;48.912;8.380;2022-10-04T01:42:14;15.30;56.80
28087;DHT22;15392;48.912;8.380;2022-10-04T01:45:07;15.40;56.80
28087;DHT22;15392;48.912;8.380;2022-10-04T01:47:42;15.30;57.00
28087;DHT22;15392;48.912;8.380;2022-10-04T01:50:29;15.30;56.90
28087;DHT22;15392;48.912;8.380;2022-10-04T01:53:11;15.30;57.20
28087;DHT22;15392;48.912;8.380;2022-10-04T01:55:48;15.30;57.00
28087;DHT22;15392;48.912;8.380;2022-10-04T01:58:19;15.20;56.90
28087;DHT22;15392;48.912;8.380;2022-10-04T02:00:53;15.20;56.90
28087;DHT22;15392;48.912;8.380;2022-10-04T02:03:28;15.20;56.90
28087;DHT22;15392;48.912;8.380;2022-10-04T02:06:01;15.20;56.90
28087;DHT22;15392;48.912;8.380;2022-10-04T02:08:32;15.10;56.80
28087;DHT22;15392;48.912;8.380;2022-10-04T02:11:04;15.10;56.90
28087;DHT22;15392;48.912;8.380;2022-10-04T02:13:38;15.10;57.00
28087;DHT22;15392;48.912;8.380;2022-10-04T02:16:09;15.10;57.20
28087;DHT22;15392;48.912;8.380;2022-10-04T02:18:37;15.10;57.10
28087;DHT22;15392;48.912;8.380;2022-10-04T02:21:05;15.00;57.10
28087;DHT22;15392;48.912;8.380;2022-10-04T02:23:33;15.00;57.10
28087;DHT22;15392;48.912;8.380;2022-10-04T02:26:07;15.00;57.10
28087;DHT22;15392;48.912;8.380;2022-10-04T02:28:34;15.00;57.00
28087;DHT22;15392;48.912;8.380;2022-10-04T02:31:01;15.00;56.90
28087;DHT22;15392;48.912;8.380;2022-10-04T02:33:48;15.00;56.90
28087;DHT22;15392;48.912;8.380;2022-10-04T02:36:17;15.00;56.90
28087;DHT22;15392;48.912;8.380;2022-10-04T02:38:54;14.90;56.90
28087;DHT22;15392;48.912;8.380;2022-10-04T02:41:30;14.90;56.90
28087;DHT22;15392;48.912;8.380;2022-10-04T02:44:17;14.90;56.90
28087;DHT22;15392;48.912;8.380;2022-10-04T02:47:20;14.90;57.00
28087;DHT22;15392;48.912;8.380;2022-10-04T02:49:54;14.80;57.00
28087;DHT22;15392;48.912;8.380;2022-10-04T02:52:25;14.80;57.00
28087;DHT22;15392;48.912;8.380;2022-10-04T02:57:28;14.70;57.00
28087;DHT22;15392;48.912;8.380;2022-10-04T03:00:17;14.70;57.20
28087;DHT22;15392;48.912;8.380;2022-10-04T03:08:57;14.70;57.20
28087;DHT22;15392;48.912;8.380;2022-10-04T03:11:27;14.60;57.10
28087;DHT22;15392;48.912;8.380;2022-10-04T03:13:58;14.60;57.00
28087;DHT22;15392;48.912;8.380;2022-10-04T03:16:26;14.60;57.00
28087;DHT22;15392;48.912;8.380;2022-10-04T03:18:55;14.60;57.20
28087;DHT22;15392;48.912;8.380;2022-10-04T03:21:22;14.60;57.20
28087;DHT22;15392;48.912;8.380;2022-10-04T03:23:50;14.60;57.10
28087;DHT22;15392;48.912;8.380;2022-10-04T03:26:33;14.60;57.00
28087;DHT22;15392;48.912;8.380;2022-10-04T03:29:05;14.50;56.80
28087;DHT22;15392;48.912;8.380;2022-10-04T03:31:40;14.50;56.80
28087;DHT22;15392;48.912;8.380;2022-10-04T03:34:15;14.50;56.80
28087;DHT22;15392;48.912;8.380;2022-10-04T03:36:43;14.40;56.70
28087;DHT22;15392;48.912;8.380;2022-10-04T03:39:10;14.40;56.70
28087;DHT22;15392;48.912;8.380;2022-10-04T03:41:40;14.40;56.90
28087;DHT22;15392;48.912;8.380;2022-10-04T03:44:14;14.40;57.10
28087;DHT22;15392;48.912;8.380;2022-10-04T03:46:42;14.30;57.20
28087;DHT22;15392;48.912;8.380;2022-10-04T03:49:17;14.30;57.20
28087;DHT22;15392;48.912;8.380;2022-10-04T03:51:48;14.30;57.30
28087;DHT22;15392;48.912;8.380;2022-10-04T03:54:21;14.30;57.30
28087;DHT22;15392;48.912;8.380;2022-10-04T03:56:50;14.30;57.40
28087;DHT22;15392;48.912;8.380;2022-10-04T03:59:18;14.30;57.30
28087;DHT22;15392;48.912;8.380;2022-10-04T04:01:48;14.30;57.30
28087;DHT22;15392;48.912;8.380;2022-10-04T04:10:02;14.30;57.30
28087;DHT22;15392;48.912;8.380;2022-10-04T04:12:41;14.30;57.30
28087;DHT22;15392;48.912;8.380;2022-10-04T04:15:13;14.30;57.30
28087;DHT22;15392;48.912;8.380;2022-10-04T04:17:42;14.20;57.20
28087;DHT22;15392;48.912;8.380;2022-10-04T04:20:37;14.20;57.20
28087;DHT22;15392;48.912;8.380;2022-10-04T04:23:21;14.20;57.20
28087;DHT22;15392;48.912;8.380;2022-10-04T04:25:52;14.20;57.20
28087;DHT22;15392;48.912;8.380;2022-10-04T04:28:25;14.20;57.10
28087;DHT22;15392;48.912;8.380;2022-10-04T04:31:14;14.20;57.00
28087;DHT22;15392;48.912;8.380;2022-10-04T04:36:16;14.10;57.10
28087;DHT22;15392;48.912;8.380;2022-10-04T04:38:42;14.10;57.20
28087;DHT22;15392;48.912;8.380;2022-10-04T04:41:29;14.10;57.30
28087;DHT22;15392;48.912;8.380;2022-10-04T04:43:56;14.10;57.30
28087;DHT22;15392;48.912;8.380;2022-10-04T04:46:23;14.10;57.30
28087;DHT22;15392;48.912;8.380;2022-10-04T04:49:01;14.10;57.40
28087;DHT22;15392;48.912;8.380;2022-10-04T04:51:30;14.10;57.50
28087;DHT22;15392;48.912;8.380;2022-10-04T04:53:56;14.10;57.40
28087;DHT22;15392;48.912;8.380;2022-10-04T04:56:25;14.10;57.30
28087;DHT22;15392;48.912;8.380;2022-10-04T04:58:55;14.00;57.10
28087;DHT22;15392;48.912;8.380;2022-10-04T05:01:26;14.00;57.20
28087;DHT22;15392;48.912;8.380;2022-10-04T05:04:05;14.10;57.30
28087;DHT22;15392;48.912;8.380;2022-10-04T05:06:40;14.00;57.30
28087;DHT22;15392;48.912;8.380;2022-10-04T05:09:30;14.00;57.50
28087;DHT22;15392;48.912;8.380;2022-10-04T05:12:02;14.00;57.10
28087;DHT22;15392;48.912;8.380;2022-10-04T05:14:34;14.00;57.30
28087;DHT22;15392;48.912;8.380;2022-10-04T05:17:02;14.00;57.30
28087;DHT22;15392;48.912;8.380;2022-10-04T05:19:36;13.90;57.50
28087;DHT22;15392;48.912;8.380;2022-10-04T05:22:12;13.90;57.00
28087;DHT22;15392;48.912;8.380;2022-10-04T05:24:47;13.90;57.00
28087;DHT22;15392;48.912;8.380;2022-10-04T05:27:37;13.90;57.10
28087;DHT22;15392;48.912;8.380;2022-10-04T05:32:58;13.80;57.20
28087;DHT22;15392;48.912;8.380;2022-10-04T05:35:27;13.80;57.20
28087;DHT22;15392;48.912;8.380;2022-10-04T05:44:30;13.80;57.20
28087;DHT22;15392;48.912;8.380;2022-10-04T05:47:00;13.70;57.40
28087;DHT22;15392;48.912;8.380;2022-10-04T05:49:32;13.70;57.20
28087;DHT22;15392;48.912;8.380;2022-10-04T05:52:02;13.70;57.30
28087;DHT22;15392;48.912;8.380;2022-10-04T05:54:33;13.60;57.30
28087;DHT22;15392;48.912;8.380;2022-10-04T06:00:07;13.70;57.50
28087;DHT22;15392;48.912;8.380;2022-10-04T06:05:50;13.60;57.20
28087;DHT22;15392;48.912;8.380;2022-10-04T06:20:46;13.50;57.70
28087;DHT22;15392;48.912;8.380;2022-10-04T06:23:36;13.50;57.80
28087;DHT22;15392;48.912;8.380;2022-10-04T06:26:12;13.50;57.50
28087;DHT22;15392;48.912;8.380;2022-10-04T06:28:45;13.50;57.50
28087;DHT22;15392;48.912;8.380;2022-10-04T06:31:45;13.50;57.40
28087;DHT22;15392;48.912;8.380;2022-10-04T06:46:04;13.50;58.00
28087;DHT22;15392;48.912;8.380;2022-10-04T06:49:24;13.50;58.40
28087;DHT22;15392;48.912;8.380;2022-10-04T06:58:36;13.60;58.10
28087;DHT22;15392;48.912;8.380;2022-10-04T07:01:27;13.60;58.10
28087;DHT22;15392;48.912;8.380;2022-10-04T07:04:04;13.60;58.30
28087;DHT22;15392;48.912;8.380;2022-10-04T07:09:58;13.60;58.40
28087;DHT22;15392;48.912;8.380;2022-10-04T07:15:32;13.70;58.30
28087;DHT22;15392;48.912;8.380;2022-10-04T07:18:07;13.70;58.10
28087;DHT22;15392;48.912;8.380;2022-10-04T07:20:40;13.70;58.10
28087;DHT22;15392;48.912;8.380;2022-10-04T07:23:27;13.80;58.20
28087;DHT22;15392;48.912;8.380;2022-10-04T07:25:57;13.80;59.00
28087;DHT22;15392;48.912;8.380;2022-10-04T07:28:31;13.80;58.50
28087;DHT22;15392;48.912;8.380;2022-10-04T07:31:25;13.80;58.00
28087;DHT22;15392;48.912;8.380;2022-10-04T07:33:59;13.90;58.10
28087;DHT22;15392;48.912;8.380;2022-10-04T07:36:36;13.90;58.10
28087;DHT22;15392;48.912;8.380;2022-10-04T07:44:57;14.00;58.10
28087;DHT22;15392;48.912;8.380;2022-10-04T07:47:28;14.00;58.20
28087;DHT22;15392;48.912;8.380;2022-10-04T07:49:55;14.00;58.10
28087;DHT22;15392;48.912;8.380;2022-10-04T07:55:41;14.10;58.40
28087;DHT22;15392;48.912;8.380;2022-10-04T08:02:39;14.20;58.20
28087;DHT22;15392;48.912;8.380;2022-10-04T08:07:43;14.30;58.30
28087;DHT22;15392;48.912;8.380;2022-10-04T08:13:56;14.40;58.20
28087;DHT22;15392;48.912;8.380;2022-10-04T08:22:51;14.50;58.40
28087;DHT22;15392;48.912;8.380;2022-10-04T08:25:40;14.60;58.40
28087;DHT22;15392;48.912;8.380;2022-10-04T08:35:47;14.70;58.40
28087;DHT22;15392;48.912;8.380;2022-10-04T08:38:45;14.80;58.20
28087;DHT22;15392;48.912;8.380;2022-10-04T08:53:51;15.10;58.30
28087;DHT22;15392;48.912;8.380;2022-10-04T09:11:41;15.40;58.10
28087;DHT22;15392;48.912;8.380;2022-10-04T09:17:53;15.50;58.20
28087;DHT22;15392;48.912;8.380;2022-10-04T09:26:41;15.70;58.00
28087;DHT22;15392;48.912;8.380;2022-10-04T09:29:51;15.80;58.10
28087;DHT22;15392;48.912;8.380;2022-10-04T09:35:38;15.90;58.10
28087;DHT22;15392;48.912;8.380;2022-10-04T09:41:12;16.00;57.90
28087;DHT22;15392;48.912;8.380;2022-10-04T09:50:12;16.10;57.80
28087;DHT22;15392;48.912;8.380;2022-10-04T09:59:31;16.20;58.00
28087;DHT22;15392;48.912;8.380;2022-10-04T10:05:34;16.30;58.00
28087;DHT22;15392;48.912;8.380;2022-10-04T10:08:29;16.30;57.90
28087;DHT22;15392;48.912;8.380;2022-10-04T10:11:29;16.40;57.90
28087;DHT22;15392;48.912;8.380;2022-10-04T10:20:22;16.50;58.00
28087;DHT22;15392;48.912;8.380;2022-10-04T10:28:53;16.60;57.90
28087;DHT22;15392;48.912;8.380;2022-10-04T10:46:41;16.90;58.00
28087;DHT22;15392;48.912;8.380;2022-10-04T10:55:28;17.20;57.80
28087;DHT22;15392;48.912;8.380;2022-10-04T10:58:29;17.30;57.80
28087;DHT22;15392;48.912;8.380;2022-10-04T11:01:15;17.40;58.40
28087;DHT22;15392;48.912;8.380;2022-10-04T11:13:47;17.70;57.60
28087;DHT22;15392;48.912;8.380;2022-10-04T11:27:53;18.00;57.30
28087;DHT22;15392;48.912;8.380;2022-10-04T11:34:17;18.10;57.10
28087;DHT22;15392;48.912;8.380;2022-10-04T11:49:03;18.30;57.00
28087;DHT22;15392;48.912;8.380;2022-10-04T11:57:25;18.40;57.10
28087;DHT22;15392;48.912;8.380;2022-10-04T12:05:45;18.60;57.40
28087;DHT22;15392;48.912;8.380;2022-10-04T12:14:48;18.80;57.20
28087;DHT22;15392;48.912;8.380;2022-10-04T12:24:13;18.90;57.20
28087;DHT22;15392;48.912;8.380;2022-10-04T12:32:58;19.10;57.10
28087;DHT22;15392;48.912;8.380;2022-10-04T12:36:19;19.10;57.20
28087;DHT22;15392;48.912;8.380;2022-10-04T12:39:33;19.20;57.00
28087;DHT22;15392;48.912;8.380;2022-10-04T13:05:51;19.70;56.90
28087;DHT22;15392;48.912;8.380;2022-10-04T13:09:01;19.70;56.50
28087;DHT22;15392;48.912;8.380;2022-10-04T13:17:14;19.80;56.30
28087;DHT22;15392;48.912;8.380;2022-10-04T13:22:58;19.90;56.30
28087;DHT22;15392;48.912;8.380;2022-10-04T13:29:02;20.00;56.40
28087;DHT22;15392;48.912;8.380;2022-10-04T13:40:15;20.20;56.20
28087;DHT22;15392;48.912;8.380;2022-10-04T13:58:44;20.60;55.90
28087;DHT22;15392;48.912;8.380;2022-10-04T14:04:22;20.60;56.00
28087;DHT22;15392;48.912;8.380;2022-10-04T14:13:16;20.70;56.30
28087;DHT22;15392;48.912;8.380;2022-10-04T14:27:48;21.00;55.90
28087;DHT22;15392;48.912;8.380;2022-10-04T14:30:42;21.00;55.60
28087;DHT22;15392;48.912;8.380;2022-10-04T14:33:33;21.00;55.30
28087;DHT22;15392;48.912;8.380;2022-10-04T14:48:55;21.10;55.80
28087;DHT22;15392;48.912;8.380;2022-10-04T14:54:52;21.20;55.60
28087;DHT22;15392;48.912;8.380;2022-10-04T14:57:49;21.20;55.80
28087;DHT22;15392;48.912;8.380;2022-10-04T15:06:58;21.20;55.70
28087;DHT22;15392;48.912;8.380;2022-10-04T15:21:28;21.40;56.20
28087;DHT22;15392;48.912;8.380;2022-10-04T15:36:30;21.50;55.40
28087;DHT22;15392;48.912;8.380;2022-10-04T15:39:21;21.50;55.50
28087;DHT22;15392;48.912;8.380;2022-10-04T15:42:23;21.50;55.80
28087;DHT22;15392;48.912;8.380;2022-10-04T15:56:55;21.60;56.00
28087;DHT22;15392;48.912;8.380;2022-10-04T16:02:50;21.60;55.80
28087;DHT22;15392;48.912;8.380;2022-10-04T16:05:37;21.60;55.90
28087;DHT22;15392;48.912;8.380;2022-10-04T16:13:37;21.60;56.70
28087;DHT22;15392;48.912;8.380;2022-10-04T16:32:37;21.50;56.80
28087;DHT22;15392;48.912;8.380;2022-10-04T16:35:14;21.50;56.90
28087;DHT22;15392;48.912;8.380;2022-10-04T16:54:25;21.10;56.80
28087;DHT22;15392;48.912;8.380;2022-10-04T16:57:21;21.10;57.00
28087;DHT22;15392;48.912;8.380;2022-10-04T16:59:56;21.00;57.00
28087;DHT22;15392;48.912;8.380;2022-10-04T17:02:52;20.90;57.00
28087;DHT22;15392;48.912;8.380;2022-10-04T17:05:43;20.80;57.10
28087;DHT22;15392;48.912;8.380;2022-10-04T17:08:23;20.70;57.00
28087;DHT22;15392;48.912;8.380;2022-10-04T17:14:01;20.60;57.00
28087;DHT22;15392;48.912;8.380;2022-10-04T17:16:54;20.50;56.90
28087;DHT22;15392;48.912;8.380;2022-10-04T17:19:34;20.40;56.90
28087;DHT22;15392;48.912;8.380;2022-10-04T17:22:26;20.30;57.00
28087;DHT22;15392;48.912;8.380;2022-10-04T17:28:23;20.10;57.10
28087;DHT22;15392;48.912;8.380;2022-10-04T17:31:06;20.00;57.20
28087;DHT22;15392;48.912;8.380;2022-10-04T17:36:43;19.90;57.40
28087;DHT22;15392;48.912;8.380;2022-10-04T17:42:07;19.80;57.40
28087;DHT22;15392;48.912;8.380;2022-10-04T17:48:07;19.70;57.70
28087;DHT22;15392;48.912;8.380;2022-10-04T17:51:30;19.60;57.80
28087;DHT22;15392;48.912;8.380;2022-10-04T18:00:22;19.40;57.70
28087;DHT22;15392;48.912;8.380;2022-10-04T18:03:03;19.30;57.70
28087;DHT22;15392;48.912;8.380;2022-10-04T18:08:33;19.30;57.90
28087;DHT22;15392;48.912;8.380;2022-10-04T18:11:31;19.20;58.00
28087;DHT22;15392;48.912;8.380;2022-10-04T18:14:40;19.20;58.20
28087;DHT22;15392;48.912;8.380;2022-10-04T18:17:28;19.10;58.20
28087;DHT22;15392;48.912;8.380;2022-10-04T18:25:42;19.00;58.20
28087;DHT22;15392;48.912;8.380;2022-10-04T18:30:57;19.00;58.00
28087;DHT22;15392;48.912;8.380;2022-10-04T18:36:13;18.90;57.90
28087;DHT22;15392;48.912;8.380;2022-10-04T18:39:17;18.80;57.80
28087;DHT22;15392;48.912;8.380;2022-10-04T18:42:00;18.80;58.10
28087;DHT22;15392;48.912;8.380;2022-10-04T18:47:37;18.70;58.40
28087;DHT22;15392;48.912;8.380;2022-10-04T18:55:58;18.50;58.40
28087;DHT22;15392;48.912;8.380;2022-10-04T19:02:11;18.40;58.60
28087;DHT22;15392;48.912;8.380;2022-10-04T19:05:04;18.30;59.00
28087;DHT22;15392;48.912;8.380;2022-10-04T19:16:41;18.10;59.10
28087;DHT22;15392;48.912;8.380;2022-10-04T19:19:40;18.10;59.00
28087;DHT22;15392;48.912;8.380;2022-10-04T19:22:27;18.00;59.10
28087;DHT22;15392;48.912;8.380;2022-10-04T19:25:38;18.00;59.00
28087;DHT22;15392;48.912;8.380;2022-10-04T19:28:25;17.90;59.00
28087;DHT22;15392;48.912;8.380;2022-10-04T19:31:23;17.90;59.20
28087;DHT22;15392;48.912;8.380;2022-10-04T19:34:17;17.80;59.30
28087;DHT22;15392;48.912;8.380;2022-10-04T19:36:49;17.80;59.30
28087;DHT22;15392;48.912;8.380;2022-10-04T19:42:43;17.70;59.70
28087;DHT22;15392;48.912;8.380;2022-10-04T19:45:58;17.70;59.10
28087;DHT22;15392;48.912;8.380;2022-10-04T19:48:40;17.70;59.50
28087;DHT22;15392;48.912;8.380;2022-10-04T19:54:10;17.70;59.30
28087;DHT22;15392;48.912;8.380;2022-10-04T19:56:44;17.60;59.50
28087;DHT22;15392;48.912;8.380;2022-10-04T19:59:15;17.60;59.30
28087;DHT22;15392;48.912;8.380;2022-10-04T20:01:44;17.60;59.30
28087;DHT22;15392;48.912;8.380;2022-10-04T20:04:13;17.60;59.30
28087;DHT22;15392;48.912;8.380;2022-10-04T20:07:00;17.60;59.30
28087;DHT22;15392;48.912;8.380;2022-10-04T20:12:35;17.60;59.50
28087;DHT22;15392;48.912;8.380;2022-10-04T20:15:11;17.50;59.80
28087;DHT22;15392;48.912;8.380;2022-10-04T20:17:39;17.50;59.60
28087;DHT22;15392;48.912;8.380;2022-10-04T20:20:06;17.50;59.30
28087;DHT22;15392;48.912;8.380;2022-10-04T20:23:05;17.50;59.40
28087;DHT22;15392;48.912;8.380;2022-10-04T20:30:53;17.50;60.20
28087;DHT22;15392;48.912;8.380;2022-10-04T20:36:08;17.40;59.90
28087;DHT22;15392;48.912;8.380;2022-10-04T20:38:46;17.40;59.70
28087;DHT22;15392;48.912;8.380;2022-10-04T20:43:58;17.40;60.00
28087;DHT22;15392;48.912;8.380;2022-10-04T20:46:36;17.40;59.80
28087;DHT22;15392;48.912;8.380;2022-10-04T20:49:14;17.40;59.90
28087;DHT22;15392;48.912;8.380;2022-10-04T20:51:48;17.30;60.00
28087;DHT22;15392;48.912;8.380;2022-10-04T20:54:18;17.30;59.90
28087;DHT22;15392;48.912;8.380;2022-10-04T20:56:49;17.30;59.80
28087;DHT22;15392;48.912;8.380;2022-10-04T20:59:16;17.30;59.90
28087;DHT22;15392;48.912;8.380;2022-10-04T21:02:02;17.30;59.70
28087;DHT22;15392;48.912;8.380;2022-10-04T21:04:35;17.30;60.30
28087;DHT22;15392;48.912;8.380;2022-10-04T21:07:10;17.30;59.80
28087;DHT22;15392;48.912;8.380;2022-10-04T21:09:40;17.30;59.80
28087;DHT22;15392;48.912;8.380;2022-10-04T21:15:20;17.40;60.30
28087;DHT22;15392;48.912;8.380;2022-10-04T21:18:06;17.40;60.30
28087;DHT22;15392;48.912;8.380;2022-10-04T21:20:47;17.40;60.20
28087;DHT22;15392;48.912;8.380;2022-10-04T21:23:30;17.40;59.80
28087;DHT22;15392;48.912;8.380;2022-10-04T21:28:42;17.40;60.10
28087;DHT22;15392;48.912;8.380;2022-10-04T21:31:08;17.40;59.60
28087;DHT22;15392;48.912;8.380;2022-10-04T21:33:35;17.40;59.60
28087;DHT22;15392;48.912;8.380;2022-10-04T21:36:01;17.40;59.60
28087;DHT22;15392;48.912;8.380;2022-10-04T21:38:28;17.40;59.60
28087;DHT22;15392;48.912;8.380;2022-10-04T21:40:54;17.40;59.60
28087;DHT22;15392;48.912;8.380;2022-10-04T21:43:21;17.40;59.50
28087;DHT22;15392;48.912;8.380;2022-10-04T21:45:47;17.40;59.50
28087;DHT22;15392;48.912;8.380;2022-10-04T21:48:13;17.40;59.50
28087;DHT22;15392;48.912;8.380;2022-10-04T21:50:39;17.40;59.40
28087;DHT22;15392;48.912;8.380;2022-10-04T21:53:05;17.40;59.50
28087;DHT22;15392;48.912;8.380;2022-10-04T21:55:31;17.40;59.50
28087;DHT22;15392;48.912;8.380;2022-10-04T21:57:57;17.30;59.60
28087;DHT22;15392;48.912;8.380;2022-10-04T22:00:23;17.40;59.60
28087;DHT22;15392;48.912;8.380;2022-10-04T22:02:48;17.30;59.60
28087;DHT22;15392;48.912;8.380;2022-10-04T22:05:15;17.30;59.70
28087;DHT22;15392;48.912;8.380;2022-10-04T22:07:41;17.30;59.70
28087;DHT22;15392;48.912;8.380;2022-10-04T22:10:07;17.30;59.70
28087;DHT22;15392;48.912;8.380;2022-10-04T22:12:33;17.30;59.70
28087;DHT22;15392;48.912;8.380;2022-10-04T22:14:59;17.40;59.70
28087;DHT22;15392;48.912;8.380;2022-10-04T22:17:25;17.40;59.60
28087;DHT22;15392;48.912;8.380;2022-10-04T22:19:51;17.40;59.50
28087;DHT22;15392;48.912;8.380;2022-10-04T22:22:17;17.40;59.50
28087;DHT22;15392;48.912;8.380;2022-10-04T22:24:43;17.40;59.40
28087;DHT22;15392;48.912;8.380;2022-10-04T22:27:13;17.40;59.30
28087;DHT22;15392;48.912;8.380;2022-10-04T22:29:40;17.40;59.30
28087;DHT22;15392;48.912;8.380;2022-10-04T22:32:24;17.40;59.20
28087;DHT22;15392;48.912;8.380;2022-10-04T22:34:57;17.30;59.30
28087;DHT22;15392;48.912;8.380;2022-10-04T22:37:25;17.40;59.10
28087;DHT22;15392;48.912;8.380;2022-10-04T22:39:51;17.30;59.20
28087;DHT22;15392;48.912;8.380;2022-10-04T22:42:18;17.30;59.10
28087;DHT22;15392;48.912;8.380;2022-10-04T22:44:52;17.30;59.00
28087;DHT22;15392;48.912;8.380;2022-10-04T22:47:18;17.30;59.00
28087;DHT22;15392;48.912;8.380;2022-10-04T22:49:46;17.30;59.00
28087;DHT22;15392;48.912;8.380;2022-10-04T22:52:20;17.30;59.20
28087;DHT22;15392;48.912;8.380;2022-10-04T22:54:57;17.20;59.20
28087;DHT22;15392;48.912;8.380;2022-10-04T22:57:26;17.30;59.40
28087;DHT22;15392;48.912;8.380;2022-10-04T22:59:54;17.20;59.10
28087;DHT22;15392;48.912;8.380;2022-10-04T23:02:22;17.20;59.10
28087;DHT22;15392;48.912;8.380;2022-10-04T23:05:08;17.20;59.00
28087;DHT22;15392;48.912;8.380;2022-10-04T23:07:37;17.20;59.10
28087;DHT22;15392;48.912;8.380;2022-10-04T23:10:03;17.20;58.90
28087;DHT22;15392;48.912;8.380;2022-10-04T23:12:30;17.20;59.00
28087;DHT22;15392;48.912;8.380;2022-10-04T23:14:55;17.20;59.10
28087;DHT22;15392;48.912;8.380;2022-10-04T23:17:32;17.20;59.00
28087;DHT22;15392;48.912;8.380;2022-10-04T23:20:13;17.20;59.00
28087;DHT22;15392;48.912;8.380;2022-10-04T23:22:46;17.20;59.20
28087;DHT22;15392;48.912;8.380;2022-10-04T23:25:23;17.10;59.10
28087;DHT22;15392;48.912;8.380;2022-10-04T23:27:50;17.10;59.10
28087;DHT22;15392;48.912;8.380;2022-10-04T23:32:48;17.10;59.10
28087;DHT22;15392;48.912;8.380;2022-10-04T23:35:18;17.10;59.10
28087;DHT22;15392;48.912;8.380;2022-10-04T23:37:46;17.10;59.20
28087;DHT22;15392;48.912;8.380;2022-10-04T23:40:15;17.10;59.10
28087;DHT22;15392;48.912;8.380;2022-10-04T23:42:44;17.10;59.20
28087;DHT22;15392;48.912;8.380;2022-10-04T23:45:19;17.10;59.10
28087;DHT22;15392;48.912;8.380;2022-10-04T23:47:48;17.00;58.90
28087;DHT22;15392;48.912;8.380;2022-10-04T23:52:44;17.00;59.30
28087;DHT22;15392;48.912;8.380;2022-10-04T23:55:19;17.00;58.80
28087;DHT22;15392;48.912;8.380;2022-10-04T23:57:47;17.00;58.80
